createdAt,value
2019-04-22T00:01:13.684Z,19.50
2019-04-22T00:03:49.761Z,18.87
2019-04-22T00:06:30.816Z,25.03
2019-04-22T00:09:05.511Z,17.63
2019-04-22T00:11:38.383Z,18.97
2019-04-22T00:14:06.752Z,20.33
2019-04-22T00:16:48.781Z,18.67
2019-04-22T00:21:47.671Z,21.03
2019-04-22T00:24:10.658Z,21.47
2019-04-22T00:26:50.215Z,17.57
2019-04-22T00:29:40.769Z,16.20
2019-04-22T00:32:00.021Z,18.83
2019-04-22T00:34:29.396Z,16.57
2019-04-22T00:37:00.666Z,17.97
2019-04-22T00:39:52.055Z,19.37
2019-04-22T00:42:09.976Z,19.53
2019-04-22T00:44:41.677Z,16.63
2019-04-22T00:47:17.969Z,17.80
2019-04-22T00:52:28.065Z,20.30
2019-04-22T00:54:49.541Z,18.03
2019-04-22T00:57:15.362Z,16.13
2019-04-22T00:59:45.661Z,16.47
2019-04-22T01:02:22.994Z,17.53
2019-04-22T01:05:09.769Z,20.83
2019-04-22T01:07:17.595Z,21.03
2019-04-22T01:12:26.333Z,15.53
2019-04-22T01:14:55.594Z,19.27
2019-04-22T01:17:27.728Z,17.70
2019-04-22T01:20:13.079Z,19.10
2019-04-22T01:22:27.128Z,15.73
2019-04-22T01:24:56.139Z,18.00
2019-04-22T01:27:22.198Z,19.27
2019-04-22T01:29:51.748Z,14.87
2019-04-22T01:32:17.607Z,17.33
2019-04-22T01:35:00.644Z,14.20
2019-04-22T01:37:28.798Z,15.10
2019-04-22T01:40:09.771Z,15.00
2019-04-22T01:42:39.750Z,14.40
2019-04-22T01:45:13.995Z,18.17
2019-04-22T01:47:46.682Z,16.57
2019-04-22T01:50:15.833Z,16.10
2019-04-22T01:52:46.773Z,16.83
2019-04-22T01:57:47.723Z,13.60
2019-04-22T02:00:11.463Z,16.67
2019-04-22T02:02:48.788Z,17.53
2019-04-22T02:07:54.298Z,17.43
2019-04-22T02:10:32.332Z,13.50
2019-04-22T02:12:55.003Z,15.50
2019-04-22T02:15:28.677Z,15.13
2019-04-22T02:18:03.232Z,13.60
2019-04-22T02:20:32.939Z,15.72
2019-04-22T02:46:41.283Z,12.33
2019-04-22T02:51:26.253Z,18.87
2019-04-22T02:54:22.243Z,14.77
2019-04-22T02:59:03.927Z,11.73
2019-04-22T03:01:30.093Z,12.50
2019-04-22T03:06:34.820Z,20.10
2019-04-22T03:09:03.896Z,12.27
2019-04-22T03:11:33.426Z,11.77
2019-04-22T03:14:13.298Z,16.57
2019-04-22T03:26:43.721Z,15.00
2019-04-22T03:29:13.325Z,18.53
2019-04-22T03:37:23.283Z,14.13
2019-04-22T03:42:07.465Z,15.60
2019-04-22T03:44:39.113Z,16.33
2019-04-22T03:49:47.482Z,16.70
2019-04-22T03:57:33.144Z,14.33
2019-04-22T03:59:41.537Z,16.63
2019-04-22T04:12:23.749Z,15.97
2019-04-22T04:14:57.963Z,17.33
2019-04-22T04:17:20.729Z,17.10
2019-04-22T04:27:43.692Z,19.63
2019-04-22T04:30:08.322Z,19.57
2019-04-22T04:35:12.655Z,17.33
2019-04-22T04:40:25.100Z,16.83
2019-04-22T04:52:52.501Z,17.07
2019-04-22T04:55:18.060Z,17.37
2019-04-22T05:02:44.729Z,16.03
2019-04-22T05:05:34.977Z,28.40
2019-04-22T05:07:48.544Z,21.83
2019-04-22T05:15:18.495Z,19.13
2019-04-22T05:17:55.475Z,23.87
2019-04-22T05:20:26.963Z,25.20
2019-04-22T05:23:01.812Z,22.40
2019-04-22T05:25:19.586Z,21.47
2019-04-22T05:27:52.150Z,18.53
2019-04-22T05:30:35.876Z,23.53
2019-04-22T05:32:47.382Z,20.47
2019-04-22T05:37:56.614Z,23.17
2019-04-22T05:40:24.555Z,16.83
2019-04-22T05:42:56.375Z,19.13
2019-04-22T05:45:28.266Z,19.90
2019-04-22T05:47:57.566Z,24.67
2019-04-22T05:50:22.806Z,17.40
2019-04-22T05:53:03.382Z,20.80
2019-04-22T05:55:36.324Z,17.70
2019-04-22T05:58:02.800Z,19.90
2019-04-22T06:01:05.621Z,21.93
2019-04-22T06:03:20.904Z,13.97
2019-04-22T06:05:45.263Z,17.00
2019-04-22T06:08:10.220Z,17.67
2019-04-22T06:10:48.572Z,15.37
2019-04-22T06:13:14.618Z,31.00
2019-04-22T06:15:49.287Z,65.63
2019-04-22T06:18:23.925Z,14.30
2019-04-22T06:23:26.105Z,17.40
2019-04-22T06:28:36.999Z,18.80
2019-04-22T06:31:02.562Z,21.97
2019-04-22T06:33:34.670Z,17.87
2019-04-22T06:36:05.119Z,22.07
2019-04-22T06:41:08.609Z,17.63
2019-04-22T06:43:38.523Z,21.67
2019-04-22T06:46:09.888Z,20.30
2019-04-22T06:48:36.254Z,18.60
2019-04-22T06:51:08.222Z,18.40
2019-04-22T06:53:41.889Z,18.47
2019-04-22T06:56:12.490Z,19.07
2019-04-22T06:58:39.902Z,18.80
2019-04-22T07:01:18.201Z,21.53
2019-04-22T07:03:48.276Z,16.60
2019-04-22T07:06:33.439Z,16.20
2019-04-22T07:11:16.816Z,19.27
2019-04-22T07:13:50.358Z,21.07
2019-04-22T07:16:30.249Z,25.27
2019-04-22T07:21:24.313Z,17.37
2019-04-22T07:24:02.934Z,26.83
2019-04-22T07:26:39.636Z,22.10
2019-04-22T07:28:56.450Z,22.73
2019-04-22T07:31:42.903Z,20.30
2019-04-22T07:33:58.469Z,17.87
2019-04-22T07:39:05.567Z,23.63
2019-04-22T07:41:32.885Z,21.63
2019-04-22T07:44:13.893Z,19.20
2019-04-22T07:51:41.090Z,19.97
2019-04-22T07:54:06.509Z,20.60
2019-04-22T07:56:42.771Z,20.00
2019-04-22T07:59:09.599Z,18.07
2019-04-22T08:01:41.908Z,15.30
2019-04-22T08:04:22.899Z,16.50
2019-04-22T08:09:20.287Z,17.50
2019-04-22T08:11:49.933Z,16.50
2019-04-22T08:14:22.490Z,16.27
2019-04-22T08:16:51.995Z,19.73
2019-04-22T08:19:23.133Z,18.23
2019-04-22T08:21:50.659Z,14.93
2019-04-22T08:24:22.738Z,15.80
2019-04-22T08:26:59.349Z,15.33
2019-04-22T08:34:25.910Z,16.70
2019-04-22T08:37:37.054Z,17.17
2019-04-22T08:39:33.161Z,16.43
2019-04-22T08:42:13.887Z,17.67
2019-04-22T08:45:08.128Z,15.27
2019-04-22T08:49:50.834Z,14.53
2019-04-22T08:52:16.296Z,13.13
2019-04-22T08:54:44.598Z,14.63
2019-04-22T08:57:18.307Z,12.93
2019-04-22T08:59:48.958Z,11.97
2019-04-22T09:02:23.012Z,11.07
2019-04-22T09:04:48.026Z,15.87
2019-04-22T09:07:28.399Z,9.77
2019-04-22T09:09:53.667Z,9.83
2019-04-22T09:12:23.970Z,12.00
2019-04-22T09:14:52.057Z,13.60
2019-04-22T09:17:39.827Z,10.23
2019-04-22T09:22:27.222Z,10.97
2019-04-22T09:24:57.322Z,12.57
2019-04-22T09:27:37.132Z,14.73
2019-04-22T09:30:01.149Z,10.80
2019-04-22T09:32:33.153Z,11.77
2019-04-22T09:35:02.615Z,14.37
2019-04-22T09:37:38.977Z,15.23
2019-04-22T09:40:11.913Z,13.70
2019-04-22T09:42:39.749Z,14.63
2019-04-22T09:50:08.240Z,11.07
2019-04-22T09:52:45.663Z,12.37
2019-04-22T09:55:18.322Z,13.57
2019-04-22T09:57:47.101Z,10.30
2019-04-22T10:00:16.953Z,14.23
2019-04-22T10:02:55.403Z,14.13
2019-04-22T10:05:21.107Z,12.43
2019-04-22T10:07:54.823Z,13.40
2019-04-22T10:12:54.304Z,11.47
2019-04-22T10:15:23.343Z,12.07
2019-04-22T10:17:58.219Z,12.20
2019-04-22T10:20:27.000Z,13.43
2019-04-22T10:23:03.787Z,10.90
2019-04-22T10:25:30.160Z,10.67
2019-04-22T10:28:01.600Z,11.47
2019-04-22T10:30:39.300Z,9.80
2019-04-22T10:33:00.787Z,7.97
2019-04-22T10:35:17.198Z,9.40
2019-04-22T10:37:42.715Z,8.77
2019-04-22T10:40:19.591Z,9.50
2019-04-22T10:42:51.432Z,12.43
2019-04-22T10:45:21.988Z,7.93
2019-04-22T10:47:52.246Z,11.67
2019-04-22T10:50:26.291Z,12.20
2019-04-22T10:52:55.786Z,16.83
2019-04-22T10:55:25.752Z,11.10
2019-04-22T10:57:55.269Z,8.87
2019-04-22T11:00:24.751Z,8.40
2019-04-22T11:02:54.209Z,7.63
2019-04-22T11:05:24.125Z,8.97
2019-04-22T11:07:59.040Z,11.87
2019-04-22T11:10:37.046Z,7.73
2019-04-22T11:12:56.821Z,7.20
2019-04-22T11:15:26.730Z,9.00
2019-04-22T11:17:57.652Z,8.23
2019-04-22T11:20:27.697Z,6.77
2019-04-22T11:22:58.262Z,7.90
2019-04-22T11:25:29.834Z,7.63
2019-04-22T11:28:00.012Z,9.07
2019-04-22T11:30:30.558Z,9.33
2019-04-22T11:33:00.467Z,7.77
2019-04-22T11:35:30.168Z,7.63
2019-04-22T11:38:01.127Z,8.47
2019-04-22T11:40:37.876Z,11.10
2019-04-22T11:43:03.904Z,9.63
2019-04-22T11:45:33.651Z,9.23
2019-04-22T11:48:03.582Z,7.40
2019-04-22T11:50:33.635Z,7.37
2019-04-22T11:53:03.113Z,7.27
2019-04-22T11:55:32.953Z,8.43
2019-04-22T11:58:03.058Z,7.03
2019-04-22T12:00:36.987Z,7.10
2019-04-22T12:03:07.317Z,10.13
2019-04-22T12:05:37.572Z,7.00
2019-04-22T12:08:09.145Z,8.00
2019-04-22T12:10:48.293Z,7.20
2019-04-22T12:13:10.351Z,7.67
2019-04-22T12:15:40.807Z,7.20
2019-04-22T12:18:11.232Z,6.23
2019-04-22T12:20:41.466Z,7.63
2019-04-22T12:23:11.192Z,6.27
2019-04-22T12:25:51.653Z,7.47
2019-04-22T12:28:15.080Z,7.33
2019-04-22T12:30:45.715Z,8.10
2019-04-22T12:33:16.948Z,7.57
2019-04-22T12:35:46.565Z,6.70
2019-04-22T12:38:17.029Z,7.30
2019-04-22T12:40:55.337Z,6.93
2019-04-22T12:43:22.150Z,9.33
2019-04-22T12:45:51.980Z,6.70
2019-04-22T12:48:23.130Z,6.50
2019-04-22T12:50:55.960Z,13.30
2019-04-22T12:53:26.338Z,7.87
2019-04-22T12:55:55.869Z,7.37
2019-04-22T12:58:27.678Z,7.20
2019-04-22T13:00:57.250Z,7.13
2019-04-22T13:03:26.679Z,6.43
2019-04-22T13:05:57.401Z,6.67
2019-04-22T13:08:27.611Z,6.93
2019-04-22T13:11:02.952Z,6.77
2019-04-22T13:13:29.038Z,10.67
2019-04-22T13:15:59.341Z,5.83
2019-04-22T13:18:37.282Z,8.27
2019-04-22T13:21:00.424Z,5.90
2019-04-22T13:23:29.975Z,7.70
2019-04-22T13:26:00.901Z,8.93
2019-04-22T13:28:31.469Z,7.30
2019-04-22T13:31:02.033Z,8.37
2019-04-22T13:33:32.903Z,6.73
2019-04-22T13:36:03.773Z,6.87
2019-04-22T13:38:33.349Z,7.33
2019-04-22T13:41:17.291Z,12.17
2019-04-22T13:43:34.764Z,11.10
2019-04-22T13:46:06.012Z,7.77
2019-04-22T13:48:58.948Z,6.70
2019-04-22T13:51:36.197Z,6.70
2019-04-22T13:56:35.709Z,7.80
2019-04-22T13:58:52.827Z,9.70
2019-04-22T14:01:14.846Z,10.80
2019-04-22T14:04:14.398Z,7.17
2019-04-22T14:06:44.850Z,11.27
2019-04-22T14:09:16.718Z,12.80
2019-04-22T14:11:52.900Z,9.83
2019-04-22T14:14:17.727Z,8.67
2019-04-22T14:16:47.297Z,8.60
2019-04-22T14:19:18.262Z,7.83
2019-04-22T14:21:49.517Z,13.63
2019-04-22T14:24:19.818Z,9.50
2019-04-22T14:26:59.961Z,8.63
2019-04-22T14:29:21.755Z,7.87
2019-04-22T14:32:04.257Z,9.83
2019-04-22T14:34:24.145Z,7.57
2019-04-22T14:36:55.182Z,15.10
2019-04-22T14:39:26.146Z,7.90
2019-04-22T14:42:19.574Z,8.20
2019-04-22T14:47:19.939Z,8.97
2019-04-22T14:49:55.996Z,7.40
2019-04-22T14:52:22.733Z,15.50
2019-04-22T14:54:45.946Z,10.10
2019-04-22T14:57:05.179Z,15.30
2019-04-22T14:59:35.788Z,10.97
2019-04-22T15:02:07.676Z,10.00
2019-04-22T15:04:37.434Z,13.83
2019-04-22T15:07:08.583Z,10.57
2019-04-22T15:09:39.524Z,9.97
2019-04-22T15:12:18.419Z,10.57
2019-04-22T15:14:41.679Z,10.37
2019-04-22T15:17:42.892Z,12.93
2019-04-22T15:20:37.683Z,11.57
2019-04-22T15:23:08.489Z,10.80
2019-04-22T15:25:38.625Z,14.53
2019-04-22T15:28:09.237Z,9.97
2019-04-22T15:30:39.412Z,10.60
2019-04-22T15:33:09.702Z,10.30
2019-04-22T15:35:39.318Z,9.70
2019-04-22T15:38:09.051Z,8.13
2019-04-22T15:40:38.694Z,9.03
2019-04-22T15:43:08.774Z,9.03
2019-04-22T15:45:39.071Z,10.23
2019-04-22T15:48:10.295Z,8.43
2019-04-22T15:50:40.540Z,12.93
2019-04-22T15:53:11.540Z,11.07
2019-04-22T15:55:42.770Z,13.30
2019-04-22T15:58:12.350Z,8.67
2019-04-22T16:00:55.633Z,9.73
2019-04-22T16:03:14.304Z,10.90
2019-04-22T16:05:44.230Z,16.60
2019-04-22T16:08:14.989Z,12.37
2019-04-22T16:10:46.008Z,15.60
2019-04-22T16:13:22.335Z,12.67
2019-04-22T16:15:46.967Z,10.20
2019-04-22T16:18:18.034Z,14.37
2019-04-22T16:20:48.187Z,13.90
2019-04-22T16:23:36.267Z,11.73
2019-04-22T16:26:26.439Z,10.53
2019-04-22T16:28:58.072Z,12.73
2019-04-22T16:31:27.276Z,10.37
2019-04-22T16:33:58.316Z,10.83
2019-04-22T16:36:29.062Z,11.23
2019-04-22T16:38:58.740Z,8.13
2019-04-22T16:41:28.681Z,11.10
2019-04-22T16:43:58.784Z,14.17
2019-04-22T16:46:29.640Z,13.83
2019-04-22T16:48:59.349Z,11.10
2019-04-22T16:51:29.787Z,15.80
2019-04-22T16:54:00.015Z,13.00
2019-04-22T16:56:33.230Z,18.33
2019-04-22T16:59:01.013Z,13.77
2019-04-22T17:02:01.355Z,12.40
2019-04-22T17:04:48.936Z,12.17
2019-04-22T17:07:20.596Z,9.60
2019-04-22T17:09:50.125Z,9.13
2019-04-22T17:12:19.789Z,14.33
2019-04-22T17:14:54.769Z,10.60
2019-04-22T17:17:20.465Z,16.63
2019-04-22T17:19:51.376Z,17.00
2019-04-22T17:22:21.768Z,13.43
2019-04-22T17:24:51.845Z,9.63
2019-04-22T17:27:22.359Z,10.80
2019-04-22T17:29:52.485Z,13.23
2019-04-22T17:32:23.479Z,10.03
2019-04-22T17:34:53.860Z,10.73
2019-04-22T17:37:26.589Z,11.20
2019-04-22T17:40:10.128Z,10.70
2019-04-22T17:42:47.815Z,9.73
2019-04-22T17:45:29.451Z,10.47
2019-04-22T17:48:20.267Z,12.67
2019-04-22T17:50:52.037Z,12.47
2019-04-22T17:53:26.087Z,14.17
2019-04-22T17:55:56.813Z,9.43
2019-04-22T17:58:29.036Z,9.20
2019-04-22T18:00:56.717Z,8.33
2019-04-22T18:03:20.217Z,8.50
2019-04-22T18:05:45.885Z,9.73
2019-04-22T18:08:33.243Z,11.43
2019-04-22T18:10:59.857Z,13.13
2019-04-22T18:13:41.300Z,8.50
2019-04-22T18:16:05.454Z,9.80
2019-04-22T18:18:36.981Z,8.80
2019-04-22T18:21:00.714Z,14.37
2019-04-22T18:23:22.698Z,10.50
2019-04-22T18:26:05.119Z,8.53
2019-04-22T18:28:47.942Z,9.27
2019-04-22T18:31:06.300Z,8.83
2019-04-22T18:33:38.633Z,9.10
2019-04-22T18:36:11.261Z,9.43
2019-04-22T18:41:15.195Z,10.30
2019-04-22T18:43:48.314Z,8.43
2019-04-22T18:46:15.730Z,9.43
2019-04-22T18:48:46.442Z,11.63
2019-04-22T18:51:31.948Z,7.80
2019-04-22T18:54:21.189Z,7.83
2019-04-22T18:56:52.459Z,9.50
2019-04-22T18:59:12.416Z,10.03
2019-04-22T19:01:33.625Z,12.97
2019-04-22T19:04:11.371Z,8.80
2019-04-22T19:06:56.465Z,8.07
2019-04-22T19:09:36.174Z,10.17
2019-04-22T19:12:18.038Z,8.73
2019-04-22T19:14:43.618Z,11.50
2019-04-22T19:17:10.871Z,11.67
2019-04-22T19:19:56.174Z,7.90
2019-04-22T19:22:03.477Z,7.97
2019-04-22T19:24:34.494Z,9.10
2019-04-22T19:27:09.540Z,12.47
2019-04-22T19:29:45.103Z,8.60
2019-04-22T19:32:18.462Z,11.70
2019-04-22T19:34:44.320Z,10.93
2019-04-22T19:37:13.285Z,8.77
2019-04-22T19:39:52.649Z,15.37
2019-04-22T19:42:24.488Z,9.47
2019-04-22T19:44:53.452Z,11.43
2019-04-22T19:47:38.212Z,10.23
2019-04-22T19:49:57.914Z,10.27
2019-04-22T19:54:57.268Z,10.87
2019-04-22T19:57:22.537Z,11.37
2019-04-22T19:59:55.851Z,9.50
2019-04-22T20:02:45.195Z,14.50
2019-04-22T20:05:30.083Z,15.67
2019-04-22T20:07:58.894Z,13.83
2019-04-22T20:10:30.040Z,11.50
2019-04-22T20:13:05.055Z,12.57
2019-04-22T20:15:29.267Z,11.73
2019-04-22T20:18:21.730Z,10.67
2019-04-22T20:20:42.235Z,14.33
2019-04-22T20:23:05.169Z,10.30
2019-04-22T20:25:35.927Z,10.90
2019-04-22T20:28:15.077Z,12.00
2019-04-22T20:30:39.969Z,10.33
2019-04-22T20:33:13.877Z,10.67
2019-04-22T20:35:46.585Z,12.40
2019-04-22T20:38:13.541Z,13.90
2019-04-22T20:40:42.538Z,12.80
2019-04-22T20:43:26.173Z,12.30
2019-04-22T20:45:51.188Z,14.20
2019-04-22T20:48:07.875Z,13.70
2019-04-22T20:50:54.847Z,13.57
2019-04-22T20:53:28.109Z,12.63
2019-04-22T20:55:52.494Z,16.40
2019-04-22T20:58:28.618Z,13.07
2019-04-22T21:00:50.219Z,11.43
2019-04-22T21:03:20.875Z,10.50
2019-04-22T21:05:52.624Z,16.20
2019-04-22T21:08:36.633Z,22.13
2019-04-22T21:10:57.926Z,11.07
2019-04-22T21:13:27.850Z,15.30
2019-04-22T21:16:10.594Z,13.37
2019-04-22T21:18:30.540Z,17.90
2019-04-22T21:21:11.407Z,11.63
2019-04-22T21:23:36.613Z,9.73
2019-04-22T21:26:11.096Z,12.37
2019-04-22T21:28:42.967Z,30.47
2019-04-22T21:31:18.933Z,14.23
2019-04-22T21:33:47.239Z,9.77
2019-04-22T21:36:20.659Z,10.13
2019-04-22T21:38:48.375Z,9.67
2019-04-22T21:41:16.099Z,8.90
2019-04-22T21:43:54.767Z,9.93
2019-04-22T21:46:23.190Z,9.90
2019-04-22T21:48:53.088Z,8.30
2019-04-22T21:51:29.077Z,11.30
2019-04-22T21:59:01.859Z,10.90
2019-04-22T22:01:52.878Z,9.23
2019-04-22T22:04:16.987Z,9.13
2019-04-22T22:06:39.624Z,8.53
2019-04-22T22:09:20.484Z,8.20
2019-04-22T22:11:46.248Z,8.43
2019-04-22T22:14:20.839Z,10.90
2019-04-22T22:16:45.977Z,10.10
2019-04-22T22:19:24.008Z,9.33
2019-04-22T22:22:02.407Z,10.27
2019-04-22T22:24:28.920Z,13.37
2019-04-22T22:26:57.117Z,8.00
2019-04-22T22:29:36.949Z,11.00
2019-04-22T22:32:02.712Z,8.97
2019-04-22T22:34:26.725Z,9.80
2019-04-22T22:36:52.860Z,7.60
2019-04-22T22:39:24.902Z,7.63
2019-04-22T22:41:44.028Z,10.93
2019-04-22T22:44:23.499Z,9.13
2019-04-22T22:47:05.008Z,7.77
2019-04-22T22:49:42.855Z,9.57
2019-04-22T22:52:32.515Z,10.37
2019-04-22T22:54:43.978Z,8.67
2019-04-22T22:57:19.502Z,10.00
2019-04-22T22:59:42.999Z,10.27
2019-04-22T23:02:11.567Z,10.87
2019-04-22T23:04:46.002Z,7.80
2019-04-22T23:07:22.572Z,8.00
2019-04-22T23:09:47.343Z,8.27
2019-04-22T23:12:31.467Z,9.60
2019-04-22T23:14:51.462Z,8.13
2019-04-22T23:17:07.093Z,9.87
2019-04-22T23:19:33.697Z,8.00
2019-04-22T23:22:14.503Z,9.33
2019-04-22T23:24:50.575Z,9.13
2019-04-22T23:27:26.213Z,9.97
2019-04-22T23:30:15.655Z,8.63
2019-04-22T23:32:43.565Z,10.00
2019-04-22T23:35:46.654Z,8.43
2019-04-22T23:38:16.488Z,7.60
2019-04-22T23:40:51.815Z,7.63
2019-04-22T23:43:27.545Z,9.90
2019-04-22T23:45:56.423Z,8.40
2019-04-22T23:48:27.106Z,8.00
2019-04-22T23:51:07.256Z,8.43
2019-04-22T23:54:04.309Z,7.60
2019-04-22T23:56:09.233Z,8.83
